Time;durP1;ratioP1;P1;durP2;ratioP2;P2;SDS_P1;SDS_P2;PMS_P1;PMS_P2;Temp;Humidity;BMP_temperature;BMP_pressure;BME280_temperature;BME280_humidity;BME280_pressure;Samples;Min_cycle;Max_cycle;Signal;HPM_P1;HPM_P2
2023/06/28 00:02:36;;;;;;;18.60;11.80;;;;;;;18.19;89.52;97371.16;10375713;28;20025;-50
2023/06/28 00:07:36;;;;;;;17.90;12.27;;;;;;;17.95;91.20;97388.69;10368545;28;20595;-51
2023/06/28 00:12:35;;;;;;;16.50;12.40;;;;;;;17.86;91.50;97381.97;10394900;28;20108;-50
2023/06/28 00:17:34;;;;;;;16.98;12.27;;;;;;;17.86;91.52;97381.13;10379124;28;20123;-50
2023/06/28 00:22:34;;;;;;;21.77;13.13;;;;;;;17.63;91.29;97347.81;10396343;28;20495;-49
2023/06/28 00:27:33;;;;;;;17.25;12.75;;;;;;;17.84;91.20;97382.94;10385870;28;20135;-48
2023/06/28 00:32:32;;;;;;;17.75;13.40;;;;;;;17.82;91.68;97369.88;10403549;28;20052;-50
2023/06/28 00:37:32;;;;;;;15.85;12.15;;;;;;;17.80;91.52;97371.72;10387556;28;20492;-47
2023/06/28 00:42:31;;;;;;;17.90;13.55;;;;;;;17.84;91.74;97378.56;10401687;28;20526;-47
2023/06/28 00:47:30;;;;;;;17.90;13.18;;;;;;;17.82;91.99;97376.91;10374956;28;20044;-50
2023/06/28 00:52:29;;;;;;;16.25;13.57;;;;;;;17.83;91.84;97370.75;10400853;28;20079;-48
2023/06/28 00:57:28;;;;;;;18.17;12.77;;;;;;;17.86;92.03;97378.50;10394266;28;20492;-49
2023/06/28 01:02:29;;;;;;;17.35;12.10;;;;;;;17.59;93.72;97370.69;10387573;28;20502;-51
2023/06/28 01:07:30;;;;;;;18.35;12.40;;;;;;;17.52;94.63;97377.06;10378142;28;20079;-51
2023/06/28 01:12:29;;;;;;;19.17;13.68;;;;;;;17.59;93.80;97369.81;10397922;28;20476;-50
2023/06/28 01:17:28;;;;;;;19.98;13.02;;;;;;;17.58;94.05;97376.81;10386221;28;20111;-48
2023/06/28 01:22:27;;;;;;;20.05;12.90;;;;;;;17.49;94.20;97377.16;10369704;28;20041;-50
2023/06/28 01:27:26;;;;;;;21.52;14.30;;;;;;;17.45;94.09;97370.28;10394277;28;20527;-49
2023/06/28 01:32:25;;;;;;;19.85;13.77;;;;;;;17.41;93.71;97366.94;10385980;28;20103;-50
2023/06/28 01:37:24;;;;;;;17.30;12.38;;;;;;;17.24;94.28;97361.38;10392114;28;20123;-49
2023/06/28 01:42:24;;;;;;;16.98;12.10;;;;;;;17.09;95.06;97374.09;10385665;28;20115;-50
2023/06/28 01:47:23;;;;;;;17.58;12.38;;;;;;;16.97;95.13;97363.19;10391640;28;20079;-49
2023/06/28 01:52:22;;;;;;;19.42;13.23;;;;;;;16.93;95.48;97373.78;10387088;28;20065;-48
2023/06/28 01:57:21;;;;;;;18.85;13.23;;;;;;;16.87;95.71;97368.72;10385575;28;20047;-50
2023/06/28 02:02:20;;;;;;;17.85;14.13;;;;;;;16.81;95.57;97366.28;10388307;28;20540;-49
2023/06/28 02:07:19;;;;;;;21.33;15.27;;;;;;;16.83;95.40;97361.88;10400832;28;20097;-49
2023/06/28 02:12:18;;;;;;;21.15;15.27;;;;;;;16.83;95.51;97372.34;10386532;28;20476;-48
2023/06/28 02:17:20;;;;;;;20.35;14.70;;;;;;;16.79;95.90;97389.03;10388283;28;20419;-50
2023/06/28 02:22:19;;;;;;;16.63;13.88;;;;;;;16.75;96.84;97390.06;10386579;28;20563;-49
2023/06/28 02:27:18;;;;;;;18.98;14.52;;;;;;;16.81;96.41;97383.78;10387669;28;20403;-48
2023/06/28 02:32:17;;;;;;;21.48;14.60;;;;;;;16.81;96.35;97395.13;10387670;28;20104;-51
2023/06/28 02:37:16;;;;;;;23.80;16.05;;;;;;;16.77;96.21;97380.38;10366178;28;20112;-49
2023/06/28 02:42:15;;;;;;;24.95;16.55;;;;;;;16.82;96.16;97391.59;10383822;28;20072;-48
2023/06/28 02:47:14;;;;;;;22.25;16.65;;;;;;;16.79;95.83;97389.03;10388345;28;20427;-50
2023/06/28 02:52:13;;;;;;;27.15;17.63;;;;;;;16.80;96.12;97392.53;10383731;28;20120;-48
2023/06/28 02:57:12;;;;;;;27.05;18.38;;;;;;;16.82;96.05;97396.00;10392057;28;20118;-49
2023/06/28 03:02:14;;;;;;;28.25;18.55;;;;;;;16.81;95.91;97402.97;10390574;28;20036;-51
2023/06/28 03:07:14;;;;;;;28.08;19.15;;;;;;;16.68;96.36;97380.69;10381827;28;20087;-49
2023/06/28 03:12:13;;;;;;;24.65;18.75;;;;;;;16.86;96.16;97408.97;10388918;28;20140;-48
2023/06/28 03:17:12;;;;;;;27.48;19.02;;;;;;;16.91;96.34;97403.53;10381976;28;20037;-50
2023/06/28 03:22:11;;;;;;;22.45;16.60;;;;;;;16.97;96.21;97402.50;10389277;28;20599;-50
2023/06/28 03:27:10;;;;;;;27.45;16.63;;;;;;;16.83;96.90;97414.28;10381098;28;20509;-47
2023/06/28 03:32:09;;;;;;;25.40;15.88;;;;;;;16.76;97.21;97423.19;10390594;28;20463;-48
2023/06/28 03:37:08;;;;;;;23.50;13.98;;;;;;;16.67;97.86;97440.06;10380239;28;20051;-47
2023/06/28 03:42:07;;;;;;;24.88;15.00;;;;;;;16.69;98.11;97442.63;10392757;28;20072;-50
2023/06/28 03:47:06;;;;;;;21.00;15.40;;;;;;;16.91;98.00;97437.59;10364502;28;20056;-50
2023/06/28 03:52:05;;;;;;;20.73;15.43;;;;;;;16.97;97.58;97405.13;10377908;28;20040;-49
2023/06/28 03:57:05;;;;;;;20.58;14.30;;;;;;;17.37;96.88;97436.13;10385177;28;20072;-50
2023/06/28 04:02:04;;;;;;;19.80;13.38;;;;;;;17.49;96.35;97429.63;10398185;28;20124;-50
2023/06/28 04:07:03;;;;;;;19.92;14.88;;;;;;;17.61;95.44;97423.94;10384308;28;20115;-49
2023/06/28 04:12:03;;;;;;;20.40;14.52;;;;;;;17.66;95.29;97423.78;10400707;28;20523;-48
2023/06/28 04:17:02;;;;;;;20.75;13.15;;;;;;;17.79;94.71;97427.72;10383088;28;20128;-50
2023/06/28 04:22:01;;;;;;;14.60;11.88;;;;;;;18.00;94.11;97433.13;10399437;28;20590;-52
2023/06/28 04:27:00;;;;;;;16.23;13.00;;;;;;;18.22;93.51;97438.44;10381496;28;20502;-51
2023/06/28 04:32:01;;;;;;;17.45;12.75;;;;;;;18.31;93.30;97415.31;10402004;28;20324;-49
2023/06/28 04:37:00;;;;;;;14.60;11.57;;;;;;;18.59;92.28;97404.63;10400060;28;20080;-51
2023/06/28 04:41:59;;;;;;;15.90;12.45;;;;;;;18.96;91.15;97424.25;10380303;28;20544;-52
2023/06/28 04:46:58;;;;;;;17.15;13.43;;;;;;;19.07;90.51;97442.22;10402070;28;20112;-51
2023/06/28 04:51:57;;;;;;;15.45;11.95;;;;;;;19.31;88.33;97448.25;10391321;28;20036;-52
2023/06/28 04:56:56;;;;;;;16.02;12.55;;;;;;;19.09;87.97;97398.31;10372670;28;20413;-50
2023/06/28 05:01:55;;;;;;;18.48;12.80;;;;;;;19.56;87.54;97447.28;10378521;28;20044;-49
2023/06/28 05:06:54;;;;;;;19.95;12.13;;;;;;;19.74;84.08;97454.38;10383699;28;20029;-51
2023/06/28 05:11:53;;;;;;;17.48;12.20;;;;;;;19.87;83.58;97455.56;10388898;28;20319;-52
2023/06/28 05:16:52;;;;;;;16.35;12.18;;;;;;;20.01;84.60;97462.03;10394713;28;20115;-51
2023/06/28 05:21:51;;;;;;;18.50;12.50;;;;;;;19.82;87.54;97462.81;10394496;28;20072;-49
2023/06/28 05:26:50;;;;;;;16.40;13.25;;;;;;;19.91;87.35;97469.47;10388947;28;20060;-49
2023/06/28 05:31:49;;;;;;;20.38;14.23;;;;;;;19.72;88.61;97466.78;10397104;28;20029;-52
2023/06/28 05:36:48;;;;;;;20.80;13.80;;;;;;;19.77;89.26;97459.53;10382675;28;20500;-50
2023/06/28 05:41:48;;;;;;;16.38;12.98;;;;;;;19.79;89.32;97462.97;10387187;28;20401;-51
2023/06/28 05:46:47;;;;;;;16.83;13.82;;;;;;;20.21;87.68;97463.78;10396469;28;20079;-51
2023/06/28 05:51:46;;;;;;;16.80;12.18;;;;;;;20.61;85.41;97457.59;10379524;28;20079;-51
2023/06/28 05:56:45;;;;;;;15.95;11.52;;;;;;;20.91;80.41;97439.47;10384791;28;20033;-52
2023/06/28 06:01:44;;;;;;;15.50;11.65;;;;;;;21.19;80.08;97427.56;10385801;28;20060;-51
2023/06/28 06:06:43;;;;;;;17.58;12.40;;;;;;;21.47;79.00;97428.88;10386916;28;20123;-50
2023/06/28 06:11:42;;;;;;;12.07;9.27;;;;;;;21.54;72.99;97428.47;10367203;28;20029;-50
2023/06/28 06:16:41;;;;;;;13.55;10.32;;;;;;;21.67;71.93;97418.16;10368314;28;20108;-51
2023/06/28 06:21:40;;;;;;;11.98;8.90;;;;;;;21.99;70.54;97441.22;10364710;28;20123;-52
2023/06/28 06:26:39;;;;;;;17.08;10.77;;;;;;;22.10;68.44;97438.91;10384676;28;20580;-51
2023/06/28 06:31:38;;;;;;;14.85;9.50;;;;;;;22.13;67.30;97452.81;10380105;28;20563;-49
2023/06/28 06:36:37;;;;;;;11.32;8.75;;;;;;;22.22;65.81;97451.44;10373114;28;20044;-51
2023/06/28 06:41:37;;;;;;;12.15;8.95;;;;;;;22.17;63.81;97427.06;10379551;28;20037;-49
2023/06/28 06:46:36;;;;;;;12.82;9.10;;;;;;;22.75;62.05;97445.09;10395986;28;20510;-49
2023/06/28 06:51:35;;;;;;;11.18;8.23;;;;;;;22.93;59.97;97447.69;10396829;28;20132;-51
2023/06/28 06:56:34;;;;;;;11.27;8.30;;;;;;;23.60;58.03;97453.56;10396896;28;20020;-52
2023/06/28 07:01:34;;;;;;;9.63;7.97;;;;;;;23.95;57.04;97464.72;10396444;28;20679;-52
2023/06/28 07:06:33;;;;;;;14.45;9.85;;;;;;;24.16;55.71;97459.06;10378706;28;20587;-52
2023/06/28 07:11:32;;;;;;;10.18;8.15;;;;;;;24.26;55.33;97444.34;10379622;28;20027;-52
2023/06/28 07:16:31;;;;;;;12.23;8.05;;;;;;;24.41;55.26;97455.81;10379041;28;20813;-53
2023/06/28 07:21:30;;;;;;;10.80;7.82;;;;;;;24.94;54.40;97450.75;10379848;28;20401;-52
2023/06/28 07:26:29;;;;;;;8.45;7.15;;;;;;;25.04;52.27;97447.41;10397746;28;20112;-53
2023/06/28 07:31:28;;;;;;;12.55;8.00;;;;;;;24.80;52.80;97378.16;10379212;28;20103;-50
2023/06/28 07:36:27;;;;;;;11.35;6.82;;;;;;;25.19;51.14;97388.94;10403183;28;20032;-52
2023/06/28 07:41:26;;;;;;;10.65;7.72;;;;;;;25.32;49.36;97446.47;10392199;28;20603;-51
2023/06/28 07:46:25;;;;;;;8.57;7.00;;;;;;;25.36;47.57;97449.75;10387728;28;20446;-52
2023/06/28 07:51:24;;;;;;;10.90;6.90;;;;;;;25.56;48.30;97445.81;10381422;28;20047;-51
2023/06/28 07:56:23;;;;;;;9.13;7.13;;;;;;;25.79;46.57;97456.72;10377238;28;20140;-51
2023/06/28 08:01:22;;;;;;;11.98;6.75;;;;;;;25.37;46.00;97450.63;10403597;28;20043;-52
2023/06/28 08:06:21;;;;;;;9.05;6.50;;;;;;;24.83;47.25;97451.41;10400722;28;20540;-50
2023/06/28 08:11:20;;;;;;;7.82;6.10;;;;;;;24.79;47.02;97448.09;10403169;28;20510;-49
2023/06/28 08:16:19;;;;;;;7.20;5.95;;;;;;;24.72;46.25;97444.13;10400029;28;20111;-51
2023/06/28 08:21:18;;;;;;;9.32;6.38;;;;;;;24.49;48.06;97443.75;10399352;28;20036;-52
2023/06/28 08:26:17;;;;;;;9.68;6.55;;;;;;;24.26;48.19;97437.25;10381181;28;20176;-52
2023/06/28 08:31:16;;;;;;;9.02;6.28;;;;;;;24.18;47.53;97428.06;10390134;28;20094;-52
2023/06/28 08:36:15;;;;;;;8.35;5.90;;;;;;;24.27;47.41;97443.41;10383754;28;20032;-51
2023/06/28 08:41:16;;;;;;;7.07;5.82;;;;;;;24.14;47.68;97437.09;10379270;28;20511;-52
2023/06/28 08:46:15;;;;;;;10.30;6.00;;;;;;;24.10;46.96;97433.81;10371192;28;20517;-50
2023/06/28 08:51:15;;;;;;;8.63;5.50;;;;;;;24.03;47.05;97428.03;10396562;28;20408;-52
2023/06/28 08:56:15;;;;;;;8.23;6.07;;;;;;;24.37;47.92;97418.00;10404841;28;20559;-50
2023/06/28 09:01:14;;;;;;;7.65;5.63;;;;;;;24.61;46.09;97420.06;10393697;28;20068;-49
2023/06/28 09:06:13;;;;;;;7.78;5.78;;;;;;;24.66;46.27;97413.53;10399910;28;20078;-49
2023/06/28 09:11:15;;;;;;;6.90;5.60;;;;;;;24.76;46.52;97419.09;10382024;28;20108;-49
2023/06/28 09:16:14;;;;;;;8.95;5.40;;;;;;;24.70;46.35;97415.03;10381612;28;20111;-48
2023/06/28 09:21:25;;;;;;;8.00;6.35;;;;;;;24.74;45.78;97420.16;10396789;28;20163;-51
2023/06/28 09:26:29;;;;;;;9.25;6.00;;;;;;;25.49;45.70;97423.25;10382365;28;20115;-51
2023/06/28 09:31:34;;;;;;;7.88;6.60;;;;;;;25.50;44.48;97409.88;10382192;28;20071;-49
2023/06/28 09:36:37;;;;;;;8.32;6.20;;;;;;;25.47;45.30;97409.22;10378669;28;20056;-50
2023/06/28 09:41:40;;;;;;;7.07;5.32;;;;;;;25.03;45.88;97421.81;10396599;28;20452;-50
2023/06/28 09:46:47;;;;;;;6.75;5.40;;;;;;;24.88;46.60;97423.66;10405947;28;20068;-51
2023/06/28 09:51:58;;;;;;;7.85;5.38;;;;;;;25.07;45.01;97417.16;10372513;28;20455;-48
2023/06/28 09:56:59;;;;;;;6.38;5.00;;;;;;;24.87;45.52;97421.97;10367868;28;20593;-51
2023/06/28 10:01:59;;;;;;;8.00;5.20;;;;;;;24.35;47.09;97434.97;10394521;28;20138;-49
2023/06/28 10:07:02;;;;;;;6.93;5.30;;;;;;;24.20;47.91;97442.06;10379578;28;20477;-51
2023/06/28 10:12:24;;;;;;;6.60;4.60;;;;;;;23.72;48.35;97452.00;10383000;28;20056;-50
2023/06/28 10:17:25;;;;;;;5.05;3.90;;;;;;;23.56;48.61;97452.03;10393352;28;20132;-51
2023/06/28 10:22:24;;;;;;;7.53;3.72;;;;;;;23.30;48.56;97456.16;10393073;28;20072;-51
2023/06/28 10:27:24;;;;;;;6.70;4.07;;;;;;;23.20;48.51;97461.13;10384542;28;20450;-52
2023/06/28 10:32:24;;;;;;;5.47;3.65;;;;;;;23.20;49.26;97459.31;10369155;28;20116;-51
2023/06/28 10:37:23;;;;;;;8.23;4.13;;;;;;;23.31;49.19;97485.19;10378997;28;20123;-51
2023/06/28 10:42:22;;;;;;;7.25;3.75;;;;;;;22.74;49.42;97467.22;10375122;28;20298;-50
2023/06/28 10:47:22;;;;;;;5.65;3.80;;;;;;;22.75;50.26;97492.72;10382078;28;20084;-51
2023/06/28 10:52:21;;;;;;;6.68;3.80;;;;;;;22.41;50.18;97508.63;10398816;28;20068;-51
2023/06/28 10:57:35;;;;;;;8.15;3.95;;;;;;;21.53;49.06;97399.53;10378875;28;20119;-50
2023/06/28 11:02:59;;;;;;;5.68;3.75;;;;;;;22.34;49.51;97510.75;10391855;28;20083;-50
2023/06/28 11:08:10;;;;;;;6.38;3.92;;;;;;;22.57;47.98;97520.13;10381505;28;20612;-51
2023/06/28 11:13:13;;;;;;;7.13;3.85;;;;;;;22.70;48.82;97526.47;10373832;28;20128;-51
2023/06/28 11:18:20;;;;;;;7.20;3.80;;;;;;;22.33;49.08;97512.53;10374862;28;20077;-49
2023/06/28 11:23:29;;;;;;;6.78;3.67;;;;;;;22.01;49.61;97534.50;10388749;28;20132;-48
2023/06/28 11:28:31;;;;;;;8.55;4.20;;;;;;;22.04;49.66;97551.06;10392818;28;20575;-50
2023/06/28 11:33:31;;;;;;;11.75;4.30;;;;;;;21.60;50.02;97542.69;10394239;28;20479;-50
2023/06/28 11:38:32;;;;;;;9.40;3.70;;;;;;;21.11;47.95;97543.19;10390138;28;20473;-51
2023/06/28 11:43:31;;;;;;;8.13;3.78;;;;;;;20.87;48.51;97555.75;10376281;28;20406;-50
2023/06/28 11:48:31;;;;;;;5.75;3.50;;;;;;;20.59;49.83;97559.63;10375931;28;20064;-48
2023/06/28 11:53:31;;;;;;;6.78;3.50;;;;;;;20.49;50.62;97576.75;10378781;28;20119;-50
2023/06/28 11:58:35;;;;;;;5.78;3.45;;;;;;;20.61;51.02;97578.00;10398537;28;20484;-51
2023/06/28 12:03:37;;;;;;;6.28;4.18;;;;;;;20.27;50.81;97580.28;10392802;28;20585;-49
2023/06/28 12:08:41;;;;;;;7.20;4.25;;;;;;;20.23;52.07;97580.50;10393310;28;20724;-50
2023/06/28 12:13:40;;;;;;;9.70;3.92;;;;;;;20.29;51.67;97589.00;10394230;28;20108;-49
2023/06/28 12:18:59;;;;;;;8.90;3.92;;;;;;;20.10;50.84;97580.16;10392585;28;20546;-51
2023/06/28 12:24:16;;;;;;;6.55;4.60;;;;;;;20.45;50.17;97586.59;10385697;28;20067;-51
2023/06/28 12:29:21;;;;;;;5.85;3.90;;;;;;;20.49;50.06;97603.13;10381516;28;20060;-49
2023/06/28 12:34:25;;;;;;;8.77;4.50;;;;;;;20.25;50.83;97612.91;10381642;28;20073;-51
2023/06/28 12:39:25;;;;;;;6.53;4.70;;;;;;;20.08;50.83;97601.31;10395363;28;20471;-49
2023/06/28 12:44:24;;;;;;;10.38;5.00;;;;;;;20.44;50.81;97597.19;10395566;28;20872;-50
2023/06/28 12:49:36;;;;;;;11.40;4.85;;;;;;;20.69;49.04;97605.75;10383679;28;20452;-51
2023/06/28 12:54:35;;;;;;;8.65;4.85;;;;;;;20.61;49.71;97594.69;10388490;28;20068;-51
2023/06/28 12:59:35;;;;;;;8.63;4.72;;;;;;;20.86;48.62;97602.34;10388971;28;20021;-51
2023/06/28 13:04:37;;;;;;;8.55;4.85;;;;;;;21.06;47.85;97601.47;10379879;28;20548;-52
2023/06/28 13:09:37;;;;;;;9.95;4.20;;;;;;;21.12;47.24;97601.19;10391043;28;20503;-48
2023/06/28 13:14:36;;;;;;;5.68;3.38;;;;;;;21.25;47.10;97590.09;10383575;28;20155;-52
2023/06/28 13:19:35;;;;;;;6.65;3.92;;;;;;;21.35;46.60;97607.19;10384549;28;20133;-52
2023/06/28 13:24:34;;;;;;;7.90;4.50;;;;;;;20.98;47.34;97598.28;10383395;28;20017;-51
2023/06/28 13:29:32;;;;;;;6.90;3.38;;;;;;;21.13;47.55;97600.25;10381163;28;20037;-51
2023/06/28 13:34:31;;;;;;;5.35;3.17;;;;;;;20.17;47.89;97626.41;10379051;28;20503;-51
2023/06/28 13:39:30;;;;;;;6.72;3.88;;;;;;;19.79;49.51;97622.69;10387888;28;20131;-52
2023/06/28 13:44:29;;;;;;;5.80;3.13;;;;;;;19.74;50.09;97627.28;10379589;28;20104;-51
2023/06/28 13:49:29;;;;;;;6.53;3.00;;;;;;;19.57;49.64;97631.44;10383294;28;20108;-51
2023/06/28 13:54:28;;;;;;;5.63;3.15;;;;;;;19.32;51.94;97631.53;10380182;28;20170;-50
2023/06/28 13:59:27;;;;;;;6.25;3.50;;;;;;;19.38;52.21;97630.44;10386307;28;20028;-51
2023/06/28 14:04:26;;;;;;;6.90;3.60;;;;;;;19.08;52.60;97656.13;10384948;28;20140;-50
2023/06/28 14:09:25;;;;;;;6.43;3.40;;;;;;;18.57;53.72;97637.75;10376613;28;20037;-48
2023/06/28 14:14:24;;;;;;;6.28;3.90;;;;;;;18.21;54.20;97652.97;10380081;28;20481;-50
2023/06/28 14:19:23;;;;;;;5.82;3.67;;;;;;;18.15;55.39;97651.41;10380906;28;20581;-50
2023/06/28 14:24:22;;;;;;;5.78;3.80;;;;;;;17.88;55.12;97665.44;10381637;28;20020;-49
2023/06/28 14:29:21;;;;;;;6.15;3.67;;;;;;;17.79;55.72;97663.94;10381829;28;20128;-51
2023/06/28 14:34:19;;;;;;;5.20;4.07;;;;;;;17.73;55.51;97665.00;10379489;28;20057;-48
2023/06/28 14:39:19;;;;;;;6.07;3.90;;;;;;;17.82;55.36;97665.63;10371726;28;20043;-50
2023/06/28 14:44:17;;;;;;;6.55;4.25;;;;;;;17.66;54.47;97641.59;10380018;28;20087;-50
2023/06/28 14:49:17;;;;;;;5.80;3.80;;;;;;;17.70;54.59;97635.34;10396805;28;20044;-50
2023/06/28 14:54:16;;;;;;;6.75;4.25;;;;;;;18.26;54.26;97652.81;10402440;28;20819;-48
2023/06/28 14:59:15;;;;;;;5.78;4.03;;;;;;;18.34;52.70;97658.69;10396165;28;20523;-49
2023/06/28 15:04:14;;;;;;;6.82;4.20;;;;;;;18.41;52.45;97670.72;10398032;28;20036;-51
2023/06/28 15:09:13;;;;;;;6.60;4.00;;;;;;;18.43;52.04;97666.22;10398983;28;20056;-51
2023/06/28 15:14:12;;;;;;;6.75;4.60;;;;;;;18.54;52.23;97648.34;10395736;28;20590;-51
2023/06/28 15:19:11;;;;;;;7.38;4.22;;;;;;;18.67;51.42;97645.31;10383972;28;20084;-50
2023/06/28 15:24:10;;;;;;;6.57;3.90;;;;;;;18.67;51.50;97645.31;10379039;28;20060;-49
2023/06/28 15:29:09;;;;;;;5.78;4.10;;;;;;;18.75;51.33;97640.66;10378325;28;20127;-50
2023/06/28 15:34:08;;;;;;;8.88;4.15;;;;;;;18.71;51.46;97639.03;10383471;28;20115;-48
2023/06/28 15:39:07;;;;;;;7.13;4.25;;;;;;;18.75;50.62;97646.75;10379980;28;20172;-48
2023/06/28 15:44:06;;;;;;;6.20;4.22;;;;;;;18.60;51.14;97648.13;10377007;28;20121;-48
2023/06/28 15:49:05;;;;;;;8.93;4.55;;;;;;;18.46;51.15;97650.38;10380493;28;20116;-51
2023/06/28 15:54:04;;;;;;;7.63;4.15;;;;;;;18.39;51.66;97675.16;10380574;28;20045;-51
2023/06/28 15:59:03;;;;;;;7.20;4.55;;;;;;;18.37;52.15;97667.31;10395059;28;20079;-51
2023/06/28 16:04:02;;;;;;;6.32;4.20;;;;;;;18.30;51.98;97681.56;10391903;28;20039;-49
2023/06/28 16:09:01;;;;;;;10.10;4.45;;;;;;;18.05;53.19;97693.78;10392124;28;20128;-51
2023/06/28 16:13:59;;;;;;;9.48;5.80;;;;;;;17.29;60.06;97690.78;10395485;28;20044;-49
2023/06/28 16:18:58;;;;;;;7.75;5.43;;;;;;;16.73;63.43;97678.31;10402209;28;20051;-51
2023/06/28 16:23:58;;;;;;;10.00;7.20;;;;;;;16.45;66.88;97712.25;10393921;28;20136;-52
2023/06/28 16:28:57;;;;;;;9.35;6.35;;;;;;;16.23;70.06;97718.91;10377302;28;20139;-50
2023/06/28 16:33:56;;;;;;;10.07;6.75;;;;;;;16.06;72.82;97708.84;10377969;28;20123;-50
2023/06/28 16:38:55;;;;;;;10.85;6.95;;;;;;;15.85;74.06;97705.81;10393480;28;20120;-50
2023/06/28 16:43:54;;;;;;;13.23;8.50;;;;;;;15.71;76.65;97702.63;10385120;28;20028;-49
2023/06/28 16:48:53;;;;;;;13.32;8.60;;;;;;;15.58;77.34;97690.75;10388999;28;20112;-50
2023/06/28 16:53:52;;;;;;;9.77;6.40;;;;;;;15.40;76.33;97713.75;10401622;28;20064;-50
2023/06/28 16:58:51;;;;;;;18.10;8.65;;;;;;;15.08;79.02;97709.19;10398675;28;20035;-50
2023/06/28 17:03:49;;;;;;;;;;;;;;;14.73;83.17;97715.97;10392425;28;20044;-50
2023/06/28 17:08:48;;;;;;;14.07;8.23;;;;;;;14.65;85.88;97725.63;10380161;28;19916;-48
2023/06/28 17:13:47;;;;;;;;;;;;;;;14.47;87.25;97712.91;10383975;28;20029;-49
2023/06/28 17:18:46;;;;;;;12.93;8.53;;;;;;;14.44;88.06;97719.03;10408090;28;19917;-50
2023/06/28 17:23:45;;;;;;;;;;;;;;;14.36;90.08;97703.50;10403339;28;20471;-49
2023/06/28 17:28:44;;;;;;;13.67;9.43;;;;;;;14.41;90.85;97708.66;10403283;28;19912;-50
2023/06/28 17:33:43;;;;;;;;;;;;;;;14.58;91.06;97710.97;10404267;28;20407;-49
2023/06/28 17:38:41;;;;;;;13.77;9.30;;;;;;;14.75;90.47;97723.75;10397320;28;19912;-49
2023/06/28 17:43:41;;;;;;;;;;;;;;;14.83;91.25;97732.31;10389245;28;20123;-51
2023/06/28 17:48:40;;;;;;;10.48;8.10;;;;;;;14.67;89.37;97741.28;10402736;28;19963;-50
2023/06/28 17:53:40;;;;;;;13.68;8.48;;;;;;;14.42;91.75;97757.38;10380878;28;20080;-50
2023/06/28 17:58:39;;;;;;;13.68;8.68;;;;;;;14.22;93.12;97770.75;10392487;28;20072;-48
2023/06/28 18:03:38;;;;;;;16.88;9.65;;;;;;;14.29;93.22;97766.25;10401563;28;20530;-50
2023/06/28 18:08:37;;;;;;;;;;;;;;;14.44;93.80;97736.47;10402312;28;20511;-48
2023/06/28 18:13:35;;;;;;;14.07;8.67;;;;;;;14.60;93.09;97727.47;10400123;28;20360;-50
2023/06/28 18:18:34;;;;;;;;;;;;;;;14.78;93.50;97728.91;10397376;28;20481;-49
2023/06/28 18:23:33;;;;;;;15.27;8.47;;;;;;;14.85;93.22;97747.94;10403573;28;19912;-51
2023/06/28 18:28:32;;;;;;;;;;;;;;;14.93;94.03;97743.47;10383895;28;20115;-50
2023/06/28 18:33:31;;;;;;;14.53;9.93;;;;;;;15.01;94.46;97742.44;10382757;28;19943;-48
2023/06/28 18:38:30;;;;;;;14.73;10.88;;;;;;;15.04;94.28;97742.38;10389095;28;20586;-51
2023/06/28 18:43:28;;;;;;;;;;;;;;;15.05;93.86;97745.84;10383756;28;20419;-48
2023/06/28 18:48:27;;;;;;;15.80;10.53;;;;;;;15.12;93.46;97752.66;10374538;28;19916;-51
2023/06/28 18:53:26;;;;;;;16.25;10.55;;;;;;;15.09;93.55;97764.94;10376691;28;20132;-51
2023/06/28 18:58:33;;;;;;;17.88;9.23;;;;;;;15.07;93.16;97766.72;10391025;28;20150;-49
2023/06/28 19:03:31;;;;;;;12.70;8.85;;;;;;;14.86;92.33;97749.69;10379274;28;20099;-47
2023/06/28 19:08:30;;;;;;;16.33;10.05;;;;;;;14.92;92.92;97755.69;10376730;28;20042;-49
2023/06/28 19:13:29;;;;;;;;;;;;;;;14.98;93.37;97752.94;10376710;28;20052;-50
2023/06/28 19:18:28;;;;;;;15.13;9.70;;;;;;;15.03;92.63;97760.69;10394033;28;19928;-48
2023/06/28 19:23:28;;;;;;;14.95;9.15;;;;;;;14.76;92.64;97777.75;10402404;28;20408;-49
2023/06/28 19:28:27;;;;;;;16.58;9.18;;;;;;;14.69;94.15;97776.09;10394270;28;20070;-51
2023/06/28 19:33:26;;;;;;;15.73;9.88;;;;;;;14.56;94.65;97773.66;10394123;28;20127;-51
2023/06/28 19:38:26;;;;;;;;;;;;;;;14.51;94.35;97782.47;10394787;28;20110;-50
2023/06/28 19:43:25;;;;;;;15.15;9.73;;;;;;;14.47;94.45;97786.00;10394657;28;20446;-49
2023/06/28 19:48:24;;;;;;;14.57;9.27;;;;;;;14.50;94.78;97780.72;10393599;28;20481;-50
2023/06/28 19:53:23;;;;;;;;;;;;;;;14.65;95.02;97775.25;10394275;28;20483;-50
2023/06/28 19:58:22;;;;;;;14.90;10.13;;;;;;;14.66;94.17;97776.13;10382547;28;20441;-50
2023/06/28 20:03:21;;;;;;;;;;;;;;;14.60;94.63;97788.41;10376279;28;20431;-50
2023/06/28 20:08:20;;;;;;;15.70;9.90;;;;;;;14.04;95.16;97739.72;10385764;28;20414;-50
2023/06/28 20:13:19;;;;;;;17.58;10.25;;;;;;;14.16;97.24;97808.22;10394778;28;20484;-49
2023/06/28 20:18:18;;;;;;;;;;;;;;;14.28;97.68;97806.31;10384605;28;20611;-52
2023/06/28 20:23:16;;;;;;;19.57;10.87;;;;;;;14.25;98.97;97809.00;10368797;28;20346;-47
2023/06/28 20:28:15;;;;;;;;;;;;;;;14.34;99.08;97820.16;10377215;28;20053;-52
2023/06/28 20:33:14;;;;;;;20.60;10.63;;;;;;;14.21;98.46;97821.19;10377972;28;19928;-51
2023/06/28 20:38:13;;;;;;;;;;;;;;;14.23;99.15;97824.66;10374017;28;20556;-49
2023/06/28 20:43:17;;;;;;;20.50;10.63;;;;;;;14.29;99.27;97824.59;10385015;28;19948;-51
2023/06/28 20:48:17;;;;;;;16.50;11.15;;;;;;;14.13;98.97;97782.19;10391695;28;20123;-51
2023/06/28 20:53:16;;;;;;;23.13;13.00;;;;;;;14.43;98.98;97800.88;10399418;28;20519;-52
2023/06/28 20:58:15;;;;;;;;;;;;;;;14.56;99.55;97809.38;10379095;28;20360;-50
2023/06/28 21:03:14;;;;;;;24.55;12.65;;;;;;;14.65;99.37;97806.59;10383476;28;19990;-51
2023/06/28 21:08:13;;;;;;;;;;;;;;;14.78;98.93;97807.28;10381596;28;20415;-48
2023/06/28 21:13:12;;;;;;;19.73;12.70;;;;;;;14.88;99.06;97802.78;10381044;28;19922;-48
2023/06/28 21:18:11;;;;;;;21.15;12.77;;;;;;;14.83;98.42;97808.94;10386850;28;20136;-48
2023/06/28 21:23:10;;;;;;;15.80;11.60;;;;;;;14.91;99.19;97823.63;10386633;28;20591;-48
2023/06/28 21:28:09;;;;;;;15.70;11.38;;;;;;;14.90;99.33;97817.53;10380307;28;20556;-51
2023/06/28 21:33:08;;;;;;;18.58;10.18;;;;;;;14.83;97.32;97824.63;10399697;28;20068;-49
2023/06/28 21:38:08;;;;;;;13.38;9.70;;;;;;;14.51;97.49;97837.31;10396787;28;20075;-51
2023/06/28 21:43:07;;;;;;;14.88;10.07;;;;;;;14.15;98.59;97826.53;10399539;28;20124;-47
2023/06/28 21:48:06;;;;;;;18.38;10.45;;;;;;;14.01;98.83;97807.56;10387456;28;20127;-51
2023/06/28 21:53:04;;;;;;;;;;;;;;;14.28;98.99;97832.44;10380295;28;20106;-52
2023/06/28 21:58:03;;;;;;;17.97;10.80;;;;;;;14.43;98.81;97857.44;10392225;28;19959;-49
2023/06/28 22:03:02;;;;;;;;;;;;;;;14.47;98.69;97848.69;10385799;28;20094;-50
2023/06/28 22:08:01;;;;;;;18.87;12.20;;;;;;;14.59;98.47;97836.31;10389077;28;20315;-50
2023/06/28 22:13:00;;;;;;;;;;;;;;;14.66;98.43;97813.53;10383345;28;20041;-49
2023/06/28 22:17:59;;;;;;;17.27;11.02;;;;;;;14.71;98.31;97809.16;10388334;28;20049;-49
2023/06/28 22:22:58;;;;;;;23.00;13.02;;;;;;;14.75;98.55;97839.53;10393949;28;20135;-49
2023/06/28 22:27:57;;;;;;;19.70;11.73;;;;;;;14.70;98.36;97841.38;10383083;28;20147;-49
2023/06/28 22:32:56;;;;;;;22.20;12.75;;;;;;;14.49;99.00;97846.91;10386813;28;20032;-50
2023/06/28 22:37:55;;;;;;;26.90;13.07;;;;;;;14.13;100.00;97826.53;10370904;28;20115;-50
2023/06/28 22:42:54;;;;;;;;;;;;;;;14.06;100.00;97839.72;10387181;28;20033;-51
2023/06/28 22:47:55;;;;;;;18.50;12.43;;;;;;;13.86;100.00;97825.16;10381618;28;20318;-51
2023/06/28 22:52:54;;;;;;;20.70;11.95;;;;;;;14.02;100.00;97796.25;10391546;28;20075;-49
2023/06/28 22:57:53;;;;;;;24.35;12.77;;;;;;;13.87;100.00;97863.41;10391749;28;20124;-50
2023/06/28 23:02:52;;;;;;;;;;;;;;;13.97;100.00;97858.94;10381113;28;20123;-50
2023/06/28 23:07:53;;;;;;;18.53;12.60;;;;;;;14.08;100.00;97859.69;10389584;28;19981;-51